sensor_id;sensor_type;location;lat;lon;timestamp;P1;durP1;ratioP1;P2;durP2;ratioP2
15528;SDS011;7866;52.280;9.500;2023-05-14T00:01:36;4.37;;;2.50;;
15528;SDS011;7866;52.280;9.500;2023-05-14T00:06:41;3.20;;;2.60;;
15528;SDS011;7866;52.280;9.500;2023-05-14T00:11:42;2.97;;;2.60;;
15528;SDS011;7866;52.280;9.500;2023-05-14T00:16:45;2.97;;;2.60;;
15528;SDS011;7866;52.280;9.500;2023-05-14T00:21:48;3.67;;;2.90;;
15528;SDS011;7866;52.280;9.500;2023-05-14T00:26:50;3.13;;;2.70;;
15528;SDS011;7866;52.280;9.500;2023-05-14T00:31:51;2.80;;;2.60;;
15528;SDS011;7866;52.280;9.500;2023-05-14T00:36:54;3.93;;;2.50;;
15528;SDS011;7866;52.280;9.500;2023-05-14T00:41:56;5.00;;;2.80;;
15528;SDS011;7866;52.280;9.500;2023-05-14T00:46:57;4.33;;;2.77;;
15528;SDS011;7866;52.280;9.500;2023-05-14T00:52:01;2.67;;;2.53;;
15528;SDS011;7866;52.280;9.500;2023-05-14T00:57:03;3.63;;;3.00;;
15528;SDS011;7866;52.280;9.500;2023-05-14T01:02:06;4.80;;;2.77;;
15528;SDS011;7866;52.280;9.500;2023-05-14T01:07:11;2.83;;;2.50;;
15528;SDS011;7866;52.280;9.500;2023-05-14T01:12:20;2.97;;;2.70;;
15528;SDS011;7866;52.280;9.500;2023-05-14T01:17:28;3.13;;;2.70;;
15528;SDS011;7866;52.280;9.500;2023-05-14T01:22:34;2.87;;;2.67;;
15528;SDS011;7866;52.280;9.500;2023-05-14T01:27:37;2.87;;;2.67;;
15528;SDS011;7866;52.280;9.500;2023-05-14T01:32:43;2.67;;;2.53;;
15528;SDS011;7866;52.280;9.500;2023-05-14T01:37:50;3.40;;;2.60;;
15528;SDS011;7866;52.280;9.500;2023-05-14T01:42:53;3.00;;;2.80;;
15528;SDS011;7866;52.280;9.500;2023-05-14T01:47:55;3.07;;;2.70;;
15528;SDS011;7866;52.280;9.500;2023-05-14T01:52:58;3.07;;;2.43;;
15528;SDS011;7866;52.280;9.500;2023-05-14T01:58:00;2.90;;;2.70;;
15528;SDS011;7866;52.280;9.500;2023-05-14T02:03:02;3.00;;;2.73;;
15528;SDS011;7866;52.280;9.500;2023-05-14T02:08:05;4.17;;;2.80;;
15528;SDS011;7866;52.280;9.500;2023-05-14T02:13:07;3.67;;;2.53;;
15528;SDS011;7866;52.280;9.500;2023-05-14T02:18:09;3.00;;;2.80;;
15528;SDS011;7866;52.280;9.500;2023-05-14T02:23:12;2.90;;;2.63;;
15528;SDS011;7866;52.280;9.500;2023-05-14T02:28:14;2.57;;;2.37;;
15528;SDS011;7866;52.280;9.500;2023-05-14T02:33:15;3.23;;;2.53;;
15528;SDS011;7866;52.280;9.500;2023-05-14T02:38:18;2.80;;;2.57;;
15528;SDS011;7866;52.280;9.500;2023-05-14T02:43:20;3.00;;;2.70;;
15528;SDS011;7866;52.280;9.500;2023-05-14T02:48:22;2.77;;;2.37;;
15528;SDS011;7866;52.280;9.500;2023-05-14T02:53:25;2.80;;;2.57;;
15528;SDS011;7866;52.280;9.500;2023-05-14T02:58:26;3.27;;;2.67;;
15528;SDS011;7866;52.280;9.500;2023-05-14T03:03:28;2.50;;;2.30;;
15528;SDS011;7866;52.280;9.500;2023-05-14T03:08:31;2.73;;;2.53;;
15528;SDS011;7866;52.280;9.500;2023-05-14T03:13:33;3.10;;;2.80;;
15528;SDS011;7866;52.280;9.500;2023-05-14T03:18:35;3.00;;;2.80;;
15528;SDS011;7866;52.280;9.500;2023-05-14T03:23:38;3.77;;;2.70;;
15528;SDS011;7866;52.280;9.500;2023-05-14T03:28:39;2.50;;;2.40;;
15528;SDS011;7866;52.280;9.500;2023-05-14T03:33:41;3.00;;;2.80;;
15528;SDS011;7866;52.280;9.500;2023-05-14T03:38:44;2.70;;;2.50;;
15528;SDS011;7866;52.280;9.500;2023-05-14T03:43:46;3.10;;;2.90;;
15528;SDS011;7866;52.280;9.500;2023-05-14T03:48:47;2.60;;;2.40;;
15528;SDS011;7866;52.280;9.500;2023-05-14T03:53:50;2.67;;;2.47;;
15528;SDS011;7866;52.280;9.500;2023-05-14T03:58:52;2.90;;;2.70;;
15528;SDS011;7866;52.280;9.500;2023-05-14T04:03:54;2.90;;;2.70;;
15528;SDS011;7866;52.280;9.500;2023-05-14T04:08:57;2.80;;;2.60;;
15528;SDS011;7866;52.280;9.500;2023-05-14T04:13:58;3.00;;;2.57;;
15528;SDS011;7866;52.280;9.500;2023-05-14T04:19:02;2.33;;;2.23;;
15528;SDS011;7866;52.280;9.500;2023-05-14T04:24:06;2.50;;;2.40;;
15528;SDS011;7866;52.280;9.500;2023-05-14T04:29:08;2.80;;;2.60;;
15528;SDS011;7866;52.280;9.500;2023-05-14T04:34:09;2.20;;;2.10;;
15528;SDS011;7866;52.280;9.500;2023-05-14T04:39:12;2.90;;;2.70;;
15528;SDS011;7866;52.280;9.500;2023-05-14T04:44:14;2.70;;;2.50;;
15528;SDS011;7866;52.280;9.500;2023-05-14T04:49:16;2.83;;;2.63;;
15528;SDS011;7866;52.280;9.500;2023-05-14T04:54:19;2.60;;;2.50;;
15528;SDS011;7866;52.280;9.500;2023-05-14T04:59:20;2.70;;;2.50;;
15528;SDS011;7866;52.280;9.500;2023-05-14T05:04:22;2.50;;;2.40;;
15528;SDS011;7866;52.280;9.500;2023-05-14T05:09:26;2.80;;;2.60;;
15528;SDS011;7866;52.280;9.500;2023-05-14T05:14:28;3.08;;;2.78;;
15528;SDS011;7866;52.280;9.500;2023-05-14T05:19:29;2.75;;;2.55;;
15528;SDS011;7866;52.280;9.500;2023-05-14T05:24:32;2.97;;;2.78;;
15528;SDS011;7866;52.280;9.500;2023-05-14T05:29:34;3.33;;;3.00;;
15528;SDS011;7866;52.280;9.500;2023-05-14T05:34:36;3.22;;;2.92;;
15528;SDS011;7866;52.280;9.500;2023-05-14T05:39:39;3.90;;;3.22;;
15528;SDS011;7866;52.280;9.500;2023-05-14T05:44:41;5.03;;;3.20;;
15528;SDS011;7866;52.280;9.500;2023-05-14T05:49:42;3.72;;;3.40;;
15528;SDS011;7866;52.280;9.500;2023-05-14T05:54:45;4.32;;;3.38;;
15528;SDS011;7866;52.280;9.500;2023-05-14T05:59:47;3.65;;;3.38;;
15528;SDS011;7866;52.280;9.500;2023-05-14T06:04:48;3.35;;;3.05;;
15528;SDS011;7866;52.280;9.500;2023-05-14T06:09:51;3.55;;;3.25;;
15528;SDS011;7866;52.280;9.500;2023-05-14T06:14:53;4.43;;;3.42;;
15528;SDS011;7866;52.280;9.500;2023-05-14T06:19:56;6.40;;;3.95;;
15528;SDS011;7866;52.280;9.500;2023-05-14T06:25:17;3.80;;;3.35;;
15528;SDS011;7866;52.280;9.500;2023-05-14T06:30:19;4.55;;;4.10;;
15528;SDS011;7866;52.280;9.500;2023-05-14T06:35:20;4.18;;;3.88;;
15528;SDS011;7866;52.280;9.500;2023-05-14T06:40:23;4.05;;;3.70;;
15528;SDS011;7866;52.280;9.500;2023-05-14T06:45:25;4.60;;;4.13;;
15528;SDS011;7866;52.280;9.500;2023-05-14T06:50:27;5.38;;;4.47;;
15528;SDS011;7866;52.280;9.500;2023-05-14T06:55:30;5.57;;;4.60;;
15528;SDS011;7866;52.280;9.500;2023-05-14T07:00:31;3.95;;;3.63;;
15528;SDS011;7866;52.280;9.500;2023-05-14T07:05:33;4.18;;;3.80;;
15528;SDS011;7866;52.280;9.500;2023-05-14T07:10:36;5.95;;;4.78;;
15528;SDS011;7866;52.280;9.500;2023-05-14T07:15:38;5.28;;;4.82;;
15528;SDS011;7866;52.280;9.500;2023-05-14T07:20:39;4.60;;;4.20;;
15528;SDS011;7866;52.280;9.500;2023-05-14T07:25:42;5.90;;;4.55;;
15528;SDS011;7866;52.280;9.500;2023-05-14T07:30:44;5.10;;;4.60;;
15528;SDS011;7866;52.280;9.500;2023-05-14T07:35:46;5.55;;;5.00;;
15528;SDS011;7866;52.280;9.500;2023-05-14T07:40:49;5.88;;;4.47;;
15528;SDS011;7866;52.280;9.500;2023-05-14T07:45:50;5.15;;;4.75;;
15528;SDS011;7866;52.280;9.500;2023-05-14T07:50:52;4.82;;;4.32;;
15528;SDS011;7866;52.280;9.500;2023-05-14T07:55:55;5.32;;;4.82;;
15528;SDS011;7866;52.280;9.500;2023-05-14T08:00:57;6.30;;;4.60;;
15528;SDS011;7866;52.280;9.500;2023-05-14T08:06:00;4.70;;;4.32;;
15528;SDS011;7866;52.280;9.500;2023-05-14T08:11:04;5.50;;;5.00;;
15528;SDS011;7866;52.280;9.500;2023-05-14T08:16:06;5.68;;;5.18;;
15528;SDS011;7866;52.280;9.500;2023-05-14T08:21:08;7.13;;;4.75;;
15528;SDS011;7866;52.280;9.500;2023-05-14T08:26:11;5.15;;;4.75;;
15528;SDS011;7866;52.280;9.500;2023-05-14T08:31:12;5.30;;;4.60;;
15528;SDS011;7866;52.280;9.500;2023-05-14T08:36:14;4.60;;;4.20;;
15528;SDS011;7866;52.280;9.500;2023-05-14T08:41:17;5.53;;;4.95;;
15528;SDS011;7866;52.280;9.500;2023-05-14T08:46:20;4.97;;;4.47;;
15528;SDS011;7866;52.280;9.500;2023-05-14T08:51:24;4.75;;;4.43;;
15528;SDS011;7866;52.280;9.500;2023-05-14T08:56:29;4.15;;;3.85;;
15528;SDS011;7866;52.280;9.500;2023-05-14T09:01:33;4.28;;;3.97;;
15528;SDS011;7866;52.280;9.500;2023-05-14T09:06:35;4.20;;;3.83;;
15528;SDS011;7866;52.280;9.500;2023-05-14T09:11:41;4.35;;;3.95;;
15528;SDS011;7866;52.280;9.500;2023-05-14T09:16:43;3.15;;;2.88;;
15528;SDS011;7866;52.280;9.500;2023-05-14T09:21:47;3.65;;;3.35;;
15528;SDS011;7866;52.280;9.500;2023-05-14T09:26:51;3.67;;;3.38;;
15528;SDS011;7866;52.280;9.500;2023-05-14T09:31:53;5.45;;;3.15;;
15528;SDS011;7866;52.280;9.500;2023-05-14T09:36:55;3.67;;;3.10;;
15528;SDS011;7866;52.280;9.500;2023-05-14T09:41:59;4.03;;;3.63;;
15528;SDS011;7866;52.280;9.500;2023-05-14T09:47:00;4.05;;;3.67;;
15528;SDS011;7866;52.280;9.500;2023-05-14T09:52:03;4.70;;;3.80;;
15528;SDS011;7866;52.280;9.500;2023-05-14T09:57:08;3.40;;;3.10;;
15528;SDS011;7866;52.280;9.500;2023-05-14T10:02:11;3.20;;;3.00;;
15528;SDS011;7866;52.280;9.500;2023-05-14T10:07:18;4.30;;;3.25;;
15528;SDS011;7866;52.280;9.500;2023-05-14T10:12:24;2.78;;;2.58;;
15528;SDS011;7866;52.280;9.500;2023-05-14T10:17:30;2.80;;;2.60;;
15528;SDS011;7866;52.280;9.500;2023-05-14T10:22:35;3.13;;;2.83;;
15528;SDS011;7866;52.280;9.500;2023-05-14T10:27:38;3.83;;;2.95;;
15528;SDS011;7866;52.280;9.500;2023-05-14T10:32:40;3.25;;;2.95;;
15528;SDS011;7866;52.280;9.500;2023-05-14T10:37:43;3.50;;;3.20;;
15528;SDS011;7866;52.280;9.500;2023-05-14T10:42:47;3.75;;;3.38;;
15528;SDS011;7866;52.280;9.500;2023-05-14T10:47:49;3.10;;;2.88;;
15528;SDS011;7866;52.280;9.500;2023-05-14T10:52:51;3.53;;;3.22;;
15528;SDS011;7866;52.280;9.500;2023-05-14T10:57:57;3.30;;;3.00;;
15528;SDS011;7866;52.280;9.500;2023-05-14T11:03:02;3.92;;;2.97;;
15528;SDS011;7866;52.280;9.500;2023-05-14T11:08:04;3.33;;;2.92;;
15528;SDS011;7866;52.280;9.500;2023-05-14T11:13:10;2.75;;;2.55;;
15528;SDS011;7866;52.280;9.500;2023-05-14T11:18:11;3.50;;;3.20;;
15528;SDS011;7866;52.280;9.500;2023-05-14T11:23:13;3.22;;;3.00;;
15528;SDS011;7866;52.280;9.500;2023-05-14T11:28:16;3.58;;;3.00;;
15528;SDS011;7866;52.280;9.500;2023-05-14T11:33:18;3.25;;;3.05;;
15528;SDS011;7866;52.280;9.500;2023-05-14T11:38:20;3.83;;;3.53;;
15528;SDS011;7866;52.280;9.500;2023-05-14T11:43:24;4.10;;;3.65;;
15528;SDS011;7866;52.280;9.500;2023-05-14T11:48:28;3.70;;;3.40;;
15528;SDS011;7866;52.280;9.500;2023-05-14T11:53:29;4.15;;;3.40;;
15528;SDS011;7866;52.280;9.500;2023-05-14T11:58:32;3.30;;;3.10;;
15528;SDS011;7866;52.280;9.500;2023-05-14T12:03:34;3.90;;;3.55;;
15528;SDS011;7866;52.280;9.500;2023-05-14T12:08:36;3.05;;;2.85;;
15528;SDS011;7866;52.280;9.500;2023-05-14T12:13:39;4.32;;;3.30;;
15528;SDS011;7866;52.280;9.500;2023-05-14T12:18:41;3.15;;;2.92;;
15528;SDS011;7866;52.280;9.500;2023-05-14T12:23:43;3.35;;;2.80;;
15528;SDS011;7866;52.280;9.500;2023-05-14T12:28:46;3.42;;;3.00;;
15528;SDS011;7866;52.280;9.500;2023-05-14T12:33:48;4.18;;;3.00;;
15528;SDS011;7866;52.280;9.500;2023-05-14T12:38:49;3.75;;;3.05;;
15528;SDS011;7866;52.280;9.500;2023-05-14T12:43:52;3.30;;;3.00;;
15528;SDS011;7866;52.280;9.500;2023-05-14T12:48:54;5.50;;;2.95;;
15528;SDS011;7866;52.280;9.500;2023-05-14T12:53:56;3.92;;;2.63;;
15528;SDS011;7866;52.280;9.500;2023-05-14T12:58:59;2.53;;;2.42;;
15528;SDS011;7866;52.280;9.500;2023-05-14T13:04:01;4.18;;;2.90;;
15528;SDS011;7866;52.280;9.500;2023-05-14T13:09:02;4.47;;;2.83;;
15528;SDS011;7866;52.280;9.500;2023-05-14T13:14:05;2.78;;;2.58;;
15528;SDS011;7866;52.280;9.500;2023-05-14T13:19:07;3.15;;;2.70;;
15528;SDS011;7866;52.280;9.500;2023-05-14T13:24:09;3.08;;;2.70;;
15528;SDS011;7866;52.280;9.500;2023-05-14T13:29:12;4.80;;;2.88;;
15528;SDS011;7866;52.280;9.500;2023-05-14T13:34:13;3.30;;;3.00;;
15528;SDS011;7866;52.280;9.500;2023-05-14T13:39:15;2.50;;;2.30;;
15528;SDS011;7866;52.280;9.500;2023-05-14T13:44:18;2.95;;;2.70;;
15528;SDS011;7866;52.280;9.500;2023-05-14T13:49:20;3.53;;;2.72;;
15528;SDS011;7866;52.280;9.500;2023-05-14T13:54:22;2.50;;;2.30;;
15528;SDS011;7866;52.280;9.500;2023-05-14T13:59:25;3.05;;;2.40;;
15528;SDS011;7866;52.280;9.500;2023-05-14T14:04:27;2.58;;;2.40;;
15528;SDS011;7866;52.280;9.500;2023-05-14T14:09:29;3.35;;;2.25;;
15528;SDS011;7866;52.280;9.500;2023-05-14T14:14:35;2.60;;;2.40;;
15528;SDS011;7866;52.280;9.500;2023-05-14T14:19:37;3.33;;;2.50;;
15528;SDS011;7866;52.280;9.500;2023-05-14T14:24:38;2.63;;;2.40;;
15528;SDS011;7866;52.280;9.500;2023-05-14T14:29:41;3.70;;;2.70;;
15528;SDS011;7866;52.280;9.500;2023-05-14T14:34:43;2.58;;;2.35;;
15528;SDS011;7866;52.280;9.500;2023-05-14T14:39:45;2.60;;;2.40;;
15528;SDS011;7866;52.280;9.500;2023-05-14T14:44:49;4.03;;;2.40;;
15528;SDS011;7866;52.280;9.500;2023-05-14T14:49:51;2.90;;;2.58;;
15528;SDS011;7866;52.280;9.500;2023-05-14T14:54:52;5.53;;;3.00;;
15528;SDS011;7866;52.280;9.500;2023-05-14T14:59:55;2.97;;;2.78;;
15528;SDS011;7866;52.280;9.500;2023-05-14T15:04:57;4.68;;;2.58;;
15528;SDS011;7866;52.280;9.500;2023-05-14T15:09:59;4.65;;;2.80;;
15528;SDS011;7866;52.280;9.500;2023-05-14T15:15:02;3.80;;;2.50;;
15528;SDS011;7866;52.280;9.500;2023-05-14T15:20:04;3.13;;;2.83;;
15528;SDS011;7866;52.280;9.500;2023-05-14T15:25:08;5.85;;;2.80;;
15528;SDS011;7866;52.280;9.500;2023-05-14T15:30:12;3.38;;;2.80;;
15528;SDS011;7866;52.280;9.500;2023-05-14T15:35:14;2.97;;;2.70;;
15528;SDS011;7866;52.280;9.500;2023-05-14T15:40:18;3.05;;;2.83;;
15528;SDS011;7866;52.280;9.500;2023-05-14T15:45:21;2.40;;;2.30;;
15528;SDS011;7866;52.280;9.500;2023-05-14T15:50:22;3.03;;;2.70;;
15528;SDS011;7866;52.280;9.500;2023-05-14T15:55:25;2.65;;;2.45;;
15528;SDS011;7866;52.280;9.500;2023-05-14T16:00:28;3.00;;;2.58;;
15528;SDS011;7866;52.280;9.500;2023-05-14T16:05:30;2.67;;;2.47;;
15528;SDS011;7866;52.280;9.500;2023-05-14T16:10:31;5.50;;;2.50;;
15528;SDS011;7866;52.280;9.500;2023-05-14T16:15:34;4.63;;;2.60;;
15528;SDS011;7866;52.280;9.500;2023-05-14T16:20:36;2.80;;;2.13;;
15528;SDS011;7866;52.280;9.500;2023-05-14T16:25:38;4.07;;;2.47;;
15528;SDS011;7866;52.280;9.500;2023-05-14T16:30:41;3.55;;;2.25;;
15528;SDS011;7866;52.280;9.500;2023-05-14T16:35:42;2.17;;;2.03;;
15528;SDS011;7866;52.280;9.500;2023-05-14T16:40:45;2.33;;;2.22;;
15528;SDS011;7866;52.280;9.500;2023-05-14T16:45:48;2.20;;;2.10;;
15528;SDS011;7866;52.280;9.500;2023-05-14T16:50:50;2.10;;;1.98;;
15528;SDS011;7866;52.280;9.500;2023-05-14T16:55:51;2.95;;;2.30;;
15528;SDS011;7866;52.280;9.500;2023-05-14T17:00:54;2.67;;;2.47;;
15528;SDS011;7866;52.280;9.500;2023-05-14T17:06:14;2.33;;;2.13;;
15528;SDS011;7866;52.280;9.500;2023-05-14T17:11:15;2.10;;;1.90;;
15528;SDS011;7866;52.280;9.500;2023-05-14T17:16:18;2.50;;;2.03;;
15528;SDS011;7866;52.280;9.500;2023-05-14T17:21:20;2.35;;;2.13;;
15528;SDS011;7866;52.280;9.500;2023-05-14T17:26:22;3.20;;;2.30;;
15528;SDS011;7866;52.280;9.500;2023-05-14T17:31:25;2.30;;;2.10;;
15528;SDS011;7866;52.280;9.500;2023-05-14T17:36:27;2.42;;;2.15;;
15528;SDS011;7866;52.280;9.500;2023-05-14T17:41:28;2.38;;;2.17;;
15528;SDS011;7866;52.280;9.500;2023-05-14T17:46:31;3.70;;;2.10;;
15528;SDS011;7866;52.280;9.500;2023-05-14T17:51:33;2.45;;;2.25;;
15528;SDS011;7866;52.280;9.500;2023-05-14T17:56:35;2.58;;;2.05;;
15528;SDS011;7866;52.280;9.500;2023-05-14T18:01:38;2.33;;;2.20;;
15528;SDS011;7866;52.280;9.500;2023-05-14T18:06:40;2.13;;;2.03;;
15528;SDS011;7866;52.280;9.500;2023-05-14T18:11:42;2.13;;;2.03;;
15528;SDS011;7866;52.280;9.500;2023-05-14T18:16:45;2.08;;;1.98;;
15528;SDS011;7866;52.280;9.500;2023-05-14T18:21:47;3.15;;;2.05;;
15528;SDS011;7866;52.280;9.500;2023-05-14T18:26:48;2.45;;;2.10;;
15528;SDS011;7866;52.280;9.500;2023-05-14T18:31:51;2.58;;;2.33;;
15528;SDS011;7866;52.280;9.500;2023-05-14T18:36:53;2.33;;;2.03;;
15528;SDS011;7866;52.280;9.500;2023-05-14T18:41:55;3.10;;;2.13;;
15528;SDS011;7866;52.280;9.500;2023-05-14T18:46:58;5.72;;;2.15;;
15528;SDS011;7866;52.280;9.500;2023-05-14T18:51:59;2.50;;;2.28;;
15528;SDS011;7866;52.280;9.500;2023-05-14T18:57:01;2.70;;;1.70;;
15528;SDS011;7866;52.280;9.500;2023-05-14T19:02:04;2.42;;;2.22;;
15528;SDS011;7866;52.280;9.500;2023-05-14T19:07:06;2.20;;;2.00;;
15528;SDS011;7866;52.280;9.500;2023-05-14T19:12:08;2.85;;;2.42;;
15528;SDS011;7866;52.280;9.500;2023-05-14T19:17:11;2.15;;;2.05;;
15528;SDS011;7866;52.280;9.500;2023-05-14T19:22:13;1.92;;;1.83;;
15528;SDS011;7866;52.280;9.500;2023-05-14T19:27:14;2.35;;;2.15;;
15528;SDS011;7866;52.280;9.500;2023-05-14T19:32:17;2.53;;;2.33;;
15528;SDS011;7866;52.280;9.500;2023-05-14T19:37:19;2.40;;;2.30;;
15528;SDS011;7866;52.280;9.500;2023-05-14T19:42:21;2.33;;;2.13;;
15528;SDS011;7866;52.280;9.500;2023-05-14T19:47:25;2.30;;;2.15;;
15528;SDS011;7866;52.280;9.500;2023-05-14T19:52:27;2.25;;;2.15;;
15528;SDS011;7866;52.280;9.500;2023-05-14T19:57:29;2.50;;;2.30;;
15528;SDS011;7866;52.280;9.500;2023-05-14T20:02:32;2.60;;;2.40;;
15528;SDS011;7866;52.280;9.500;2023-05-14T20:07:34;2.58;;;2.40;;
15528;SDS011;7866;52.280;9.500;2023-05-14T20:12:36;2.42;;;2.22;;
15528;SDS011;7866;52.280;9.500;2023-05-14T20:17:39;3.35;;;2.33;;
15528;SDS011;7866;52.280;9.500;2023-05-14T20:22:40;2.83;;;2.22;;
15528;SDS011;7866;52.280;9.500;2023-05-14T20:27:43;2.88;;;2.47;;
15528;SDS011;7866;52.280;9.500;2023-05-14T20:32:46;2.70;;;2.50;;
15528;SDS011;7866;52.280;9.500;2023-05-14T20:37:47;2.72;;;2.53;;
15528;SDS011;7866;52.280;9.500;2023-05-14T20:42:49;2.22;;;2.13;;
15528;SDS011;7866;52.280;9.500;2023-05-14T20:47:52;2.85;;;2.65;;
15528;SDS011;7866;52.280;9.500;2023-05-14T20:52:54;2.75;;;2.55;;
15528;SDS011;7866;52.280;9.500;2023-05-14T20:57:56;2.60;;;2.40;;
15528;SDS011;7866;52.280;9.500;2023-05-14T21:02:59;2.75;;;2.42;;
15528;SDS011;7866;52.280;9.500;2023-05-14T21:08:00;2.88;;;2.58;;
15528;SDS011;7866;52.280;9.500;2023-05-14T21:13:02;4.50;;;2.55;;
15528;SDS011;7866;52.280;9.500;2023-05-14T21:18:05;3.00;;;2.80;;
15528;SDS011;7866;52.280;9.500;2023-05-14T21:23:06;4.03;;;2.60;;
15528;SDS011;7866;52.280;9.500;2023-05-14T21:28:08;2.83;;;2.63;;
15528;SDS011;7866;52.280;9.500;2023-05-14T21:33:11;3.30;;;3.03;;
15528;SDS011;7866;52.280;9.500;2023-05-14T21:38:13;4.70;;;2.83;;
15528;SDS011;7866;52.280;9.500;2023-05-14T21:43:14;3.70;;;3.27;;
15528;SDS011;7866;52.280;9.500;2023-05-14T21:48:18;3.65;;;3.35;;
15528;SDS011;7866;52.280;9.500;2023-05-14T21:53:20;5.85;;;4.07;;
15528;SDS011;7866;52.280;9.500;2023-05-14T21:58:22;4.50;;;4.10;;
15528;SDS011;7866;52.280;9.500;2023-05-14T22:03:25;7.27;;;4.30;;
15528;SDS011;7866;52.280;9.500;2023-05-14T22:08:27;4.73;;;4.33;;
15528;SDS011;7866;52.280;9.500;2023-05-14T22:13:30;4.70;;;3.50;;
15528;SDS011;7866;52.280;9.500;2023-05-14T22:18:33;3.77;;;3.47;;
15528;SDS011;7866;52.280;9.500;2023-05-14T22:23:35;4.00;;;3.60;;
15528;SDS011;7866;52.280;9.500;2023-05-14T22:28:36;3.50;;;3.20;;
15528;SDS011;7866;52.280;9.500;2023-05-14T22:33:43;4.00;;;3.30;;
15528;SDS011;7866;52.280;9.500;2023-05-14T22:38:44;3.00;;;2.80;;
15528;SDS011;7866;52.280;9.500;2023-05-14T22:43:46;3.17;;;2.85;;
15528;SDS011;7866;52.280;9.500;2023-05-14T22:48:49;3.33;;;3.03;;
15528;SDS011;7866;52.280;9.500;2023-05-14T22:53:52;3.40;;;3.10;;
15528;SDS011;7866;52.280;9.500;2023-05-14T22:58:54;3.50;;;3.20;;
15528;SDS011;7866;52.280;9.500;2023-05-14T23:03:57;3.47;;;3.27;;
15528;SDS011;7866;52.280;9.500;2023-05-14T23:08:59;4.90;;;3.33;;
15528;SDS011;7866;52.280;9.500;2023-05-14T23:14:00;3.20;;;2.93;;
15528;SDS011;7866;52.280;9.500;2023-05-14T23:19:03;3.33;;;3.03;;
15528;SDS011;7866;52.280;9.500;2023-05-14T23:24:05;4.60;;;3.47;;
15528;SDS011;7866;52.280;9.500;2023-05-14T23:29:07;3.47;;;3.20;;
15528;SDS011;7866;52.280;9.500;2023-05-14T23:34:10;3.90;;;3.27;;
15528;SDS011;7866;52.280;9.500;2023-05-14T23:39:12;3.70;;;3.40;;
15528;SDS011;7866;52.280;9.500;2023-05-14T23:44:13;4.07;;;3.40;;
15528;SDS011;7866;52.280;9.500;2023-05-14T23:49:16;4.00;;;3.60;;
15528;SDS011;7866;52.280;9.500;2023-05-14T23:54:18;4.03;;;3.63;;
15528;SDS011;7866;52.280;9.500;2023-05-14T23:59:20;3.70;;;3.20;;
